Time;durP1;ratioP1;P1;durP2;ratioP2;P2;SDS_P1;SDS_P2;PMS_P1;PMS_P2;Temp;Humidity;BMP_temperature;BMP_pressure;BME280_temperature;BME280_humidity;BME280_pressure;Samples;Min_cycle;Max_cycle;Signal;HPM_P1;HPM_P2
2022/12/22 03:29:07;;;;;;;2.50;2.40;;;10.90;99.90;;;;;;10311854;28;20222;-80
2022/12/22 03:34:10;;;;;;;2.83;2.53;;;10.80;99.90;;;;;;10314790;28;20220;-80
2022/12/22 03:39:12;;;;;;;2.27;2.17;;;10.80;99.90;;;;;;10317633;28;20206;-79
2022/12/22 03:49:35;;;;;;;5.10;3.10;;;10.80;99.90;;;;;;10318605;28;20287;-79
2022/12/22 03:54:37;;;;;;;2.70;2.50;;;10.70;99.90;;;;;;10305797;28;20338;-79
2022/12/22 03:59:40;;;;;;;2.30;2.20;;;10.60;99.90;;;;;;10296810;28;20254;-80
2022/12/22 04:04:43;;;;;;;3.03;2.60;;;10.60;99.90;;;;;;10312834;28;20230;-80
2022/12/22 04:15:01;;;;;;;2.10;2.00;;;10.60;99.90;;;;;;10321668;28;20237;-79
2022/12/22 04:20:05;;;;;;;2.73;2.63;;;10.70;99.90;;;;;;10319768;28;20192;-79
2022/12/22 04:25:08;;;;;;;2.70;2.50;;;10.80;99.90;;;;;;10322891;28;20639;-79
2022/12/22 04:30:12;;;;;;;2.33;2.23;;;10.90;99.90;;;;;;10323248;28;20215;-80
2022/12/22 04:35:15;;;;;;;2.43;2.33;;;10.90;99.90;;;;;;10325166;28;20283;-79
2022/12/22 04:40:17;;;;;;;2.93;2.83;;;10.90;99.90;;;;;;10321615;28;20203;-79
2022/12/22 04:45:19;;;;;;;3.33;3.23;;;10.90;99.90;;;;;;10332041;28;20282;-79
2022/12/22 04:50:22;;;;;;;3.40;3.10;;;10.80;99.90;;;;;;10322658;28;20429;-79
2022/12/22 04:55:25;;;;;;;3.47;3.37;;;10.80;99.90;;;;;;10322080;28;20242;-78
2022/12/22 05:00:27;;;;;;;3.23;3.13;;;10.70;99.90;;;;;;10322171;28;20196;-79
2022/12/22 05:05:30;;;;;;;3.80;3.47;;;10.60;99.90;;;;;;10314438;28;20234;-79
2022/12/22 05:10:32;;;;;;;6.80;3.57;;;10.70;99.90;;;;;;10322974;28;20235;-78
2022/12/22 05:15:35;;;;;;;7.37;3.20;;;10.60;99.90;;;;;;10317118;28;20219;-80
2022/12/22 05:20:39;;;;;;;2.93;2.83;;;10.60;99.90;;;;;;10321216;28;20210;-80
2022/12/22 05:25:41;;;;;;;3.23;2.97;;;10.70;99.90;;;;;;10307655;28;20255;-79
2022/12/22 05:30:43;;;;;;;5.40;3.50;;;10.70;99.90;;;;;;10316418;28;20213;-79
2022/12/22 05:35:46;;;;;;;4.50;4.20;;;10.80;99.90;;;;;;10337576;28;20243;-79
2022/12/22 05:40:49;;;;;;;4.70;4.40;;;10.80;99.90;;;;;;10312972;28;20471;-78
2022/12/22 05:45:51;;;;;;;7.50;5.23;;;10.80;99.90;;;;;;10312575;28;20219;-78
2022/12/22 05:50:55;;;;;;;4.93;4.63;;;10.80;99.90;;;;;;10296121;28;20200;-78
2022/12/22 05:55:58;;;;;;;4.70;4.20;;;10.80;99.90;;;;;;10310492;28;20514;-78
2022/12/22 06:01:01;;;;;;;7.90;5.10;;;10.90;99.90;;;;;;10305304;28;20204;-79
2022/12/22 06:06:05;;;;;;;3.83;3.60;;;10.90;99.90;;;;;;10300470;28;20220;-80
2022/12/22 06:11:07;;;;;;;4.03;3.63;;;10.90;99.90;;;;;;10314756;28;20211;-79
2022/12/22 06:16:09;;;;;;;4.77;4.10;;;10.90;99.90;;;;;;10295573;28;20303;-81
2022/12/22 06:21:12;;;;;;;4.40;4.00;;;10.90;99.90;;;;;;10309280;28;20278;-80
2022/12/22 06:26:14;;;;;;;5.43;4.33;;;10.80;99.90;;;;;;10322280;28;20259;-79
2022/12/22 06:31:16;;;;;;;5.53;4.40;;;10.80;99.90;;;;;;10290488;28;20210;-79
2022/12/22 06:36:20;;;;;;;5.30;4.57;;;10.80;99.90;;;;;;10321199;28;20327;-78
2022/12/22 06:46:38;;;;;;;5.90;4.10;;;10.80;99.90;;;;;;10301684;28;20247;-80
2022/12/22 06:51:41;;;;;;;4.63;3.90;;;10.80;99.90;;;;;;10311716;28;20207;-79
2022/12/22 06:56:43;;;;;;;10.40;4.70;;;10.90;99.90;;;;;;10290163;28;20198;-78
2022/12/22 07:01:45;;;;;;;9.30;4.17;;;11.00;99.90;;;;;;10322107;28;20291;-80
2022/12/22 07:06:49;;;;;;;6.93;4.60;;;11.10;99.90;;;;;;10348062;23;20230;-78
2022/12/22 07:11:51;;;;;;;5.27;3.50;;;11.10;99.90;;;;;;10362716;28;20191;-78
2022/12/22 07:16:53;;;;;;;7.00;3.90;;;11.10;99.90;;;;;;10349996;28;20210;-78
2022/12/22 07:21:56;;;;;;;10.57;4.20;;;11.10;99.90;;;;;;10355782;28;20264;-78
2022/12/22 07:26:58;;;;;;;6.07;4.00;;;11.10;99.90;;;;;;10368201;28;20251;-78
2022/12/22 07:32:01;;;;;;;8.50;4.10;;;10.90;99.90;;;;;;10343723;28;20718;-78
2022/12/22 07:37:04;;;;;;;6.30;3.23;;;10.90;99.90;;;;;;10335154;28;20353;-78
2022/12/22 07:47:25;;;;;;;11.30;3.13;;;11.10;99.90;;;;;;10354722;28;20278;-78
2022/12/22 07:52:29;;;;;;;9.13;3.27;;;11.10;99.90;;;;;;10359750;28;20231;-78
2022/12/22 07:57:31;;;;;;;6.10;2.87;;;11.10;99.90;;;;;;10352997;28;20225;-78
2022/12/22 08:02:33;;;;;;;10.30;4.73;;;11.10;99.90;;;;;;10382515;28;20667;-77
2022/12/22 08:07:37;;;;;;;7.00;3.23;;;11.00;99.90;;;;;;10369264;28;20219;-78
2022/12/22 08:12:39;;;;;;;10.17;3.53;;;10.90;99.90;;;;;;10347687;28;20283;-78
2022/12/22 08:17:41;;;;;;;5.87;2.70;;;10.80;99.90;;;;;;10357856;28;20246;-78
2022/12/22 08:22:45;;;;;;;6.60;2.90;;;10.70;99.90;;;;;;10358771;28;20689;-78
2022/12/22 08:27:50;;;;;;;6.30;2.80;;;10.80;99.90;;;;;;10342161;28;20223;-78
2022/12/22 08:32:52;;;;;;;5.40;2.80;;;10.80;99.90;;;;;;10365814;28;20215;-77
2022/12/22 08:37:56;;;;;;;7.10;3.50;;;10.80;99.90;;;;;;10349346;28;20584;-77
2022/12/22 08:43:02;;;;;;;4.87;2.97;;;10.80;99.90;;;;;;10360430;28;20219;-77
2022/12/22 08:48:04;;;;;;;5.73;2.53;;;10.90;99.90;;;;;;10335944;28;20237;-77
2022/12/22 08:53:09;;;;;;;8.40;3.20;;;11.10;99.90;;;;;;10343732;28;20696;-77
2022/12/22 08:58:11;;;;;;;6.83;3.17;;;11.10;99.90;;;;;;10346493;28;20218;-77
2022/12/22 09:03:13;;;;;;;9.77;2.83;;;11.20;99.90;;;;;;10369574;28;20219;-78
2022/12/22 09:08:16;;;;;;;6.27;2.70;;;11.40;99.90;;;;;;10347746;28;20305;-78
2022/12/22 09:13:18;;;;;;;8.97;3.00;;;11.50;99.90;;;;;;10380341;28;20250;-77
2022/12/22 09:18:20;;;;;;;8.20;3.10;;;11.50;99.90;;;;;;10370081;28;20195;-78
2022/12/22 09:23:24;;;;;;;8.93;3.60;;;11.70;99.90;;;;;;10374572;28;20615;-78
2022/12/22 09:28:26;;;;;;;10.23;5.00;;;11.60;99.90;;;;;;10352165;28;20215;-79
2022/12/22 09:33:28;;;;;;;13.80;6.63;;;11.40;99.90;;;;;;10347526;28;20617;-79
2022/12/22 09:38:31;;;;;;;6.77;5.93;;;11.10;99.90;;;;;;10382464;28;20198;-79
2022/12/22 09:43:34;;;;;;;8.87;6.20;;;11.00;99.90;;;;;;10380667;28;20214;-78
2022/12/22 09:48:37;;;;;;;14.57;9.97;;;10.90;99.90;;;;;;10363620;28;20264;-79
2022/12/22 09:53:42;;;;;;;10.47;4.77;;;10.80;99.90;;;;;;10364842;28;20230;-79
2022/12/22 09:58:46;;;;;;;7.17;6.43;;;10.80;99.90;;;;;;10350128;28;20226;-79
2022/12/22 10:03:53;;;;;;;8.20;7.20;;;10.70;99.90;;;;;;10373359;28;20218;-78
2022/12/22 10:09:01;;;;;;;11.93;6.23;;;10.70;99.90;;;;;;10380250;28;20218;-79
2022/12/22 10:14:03;;;;;;;8.07;6.33;;;10.60;99.90;;;;;;10351743;28;20249;-79
2022/12/22 10:19:09;;;;;;;6.33;5.57;;;10.70;99.90;;;;;;10379112;28;20188;-79
2022/12/22 10:24:18;;;;;;;7.33;6.73;;;10.70;99.90;;;;;;10350282;28;20221;-78
2022/12/22 10:29:20;;;;;;;6.77;4.93;;;10.70;99.90;;;;;;10382733;28;20504;-79
2022/12/22 10:34:22;;;;;;;9.10;6.83;;;10.80;99.90;;;;;;10380124;28;20234;-79
2022/12/22 10:39:28;;;;;;;7.37;7.03;;;10.90;99.90;;;;;;10351444;28;20266;-78
2022/12/22 10:44:33;;;;;;;9.70;6.47;;;11.00;99.90;;;;;;10364892;28;20222;-78
2022/12/22 10:49:38;;;;;;;7.70;7.10;;;11.00;99.90;;;;;;10344394;28;20210;-78
2022/12/22 10:54:43;;;;;;;6.83;5.90;;;11.10;99.90;;;;;;10371835;28;20249;-78
2022/12/22 10:59:49;;;;;;;7.10;6.50;;;11.10;99.90;;;;;;10347075;28;20191;-78
2022/12/22 11:04:52;;;;;;;5.30;4.80;;;11.10;99.90;;;;;;10345665;28;20222;-79
2022/12/22 11:09:56;;;;;;;7.17;6.40;;;11.10;99.90;;;;;;10373635;28;20210;-78
2022/12/22 11:15:04;;;;;;;5.70;5.30;;;11.10;99.90;;;;;;10342769;28;20246;-78
2022/12/22 11:20:35;;;;;;;3.70;3.20;;;11.10;99.90;;;;;;10372069;28;20199;-79
2022/12/22 11:25:48;;;;;;;7.60;7.00;;;11.10;99.90;;;;;;10360015;28;20215;-78
2022/12/22 11:31:01;;;;;;;8.20;5.57;;;11.20;99.90;;;;;;10371858;28;20234;-78
2022/12/22 11:36:05;;;;;;;10.30;9.27;;;11.30;99.90;;;;;;10368034;28;20250;-78
2022/12/22 11:41:31;;;;;;;6.13;5.73;;;11.40;99.90;;;;;;10347392;28;20191;-78
2022/12/22 11:46:43;;;;;;;2.77;2.37;;;11.40;99.90;;;;;;10341284;28;20230;-79
2022/12/22 11:52:01;;;;;;;5.60;5.20;;;11.40;99.90;;;;;;10336074;28;20190;-78
2022/12/22 11:57:15;;;;;;;4.90;4.40;;;11.50;99.90;;;;;;10362505;28;20222;-78
2022/12/22 12:02:44;;;;;;;5.40;5.00;;;11.60;99.90;;;;;;10344178;28;20577;-78
2022/12/22 12:07:50;;;;;;;4.77;4.43;;;11.70;99.90;;;;;;10357177;28;20668;-78
2022/12/22 12:13:09;;;;;;;4.50;4.20;;;11.70;99.90;;;;;;10358298;28;20231;-78
2022/12/22 12:18:33;;;;;;;5.67;5.00;;;11.70;99.90;;;;;;10343917;28;20218;-78
2022/12/22 12:23:55;;;;;;;5.80;5.00;;;11.80;99.90;;;;;;10360917;28;20215;-78
2022/12/22 12:29:10;;;;;;;2.80;2.60;;;12.00;99.90;;;;;;10367490;28;20682;-78
2022/12/22 12:34:15;;;;;;;4.43;4.00;;;12.20;99.90;;;;;;10343522;28;20628;-79
2022/12/22 12:39:25;;;;;;;4.83;4.53;;;12.20;99.90;;;;;;10362800;28;20222;-78
2022/12/22 12:44:33;;;;;;;3.83;3.53;;;12.20;99.90;;;;;;10363739;28;20282;-78
2022/12/22 12:50:02;;;;;;;4.50;4.10;;;12.20;99.90;;;;;;10355737;28;20214;-78
2022/12/22 12:55:23;;;;;;;4.40;4.20;;;12.20;99.90;;;;;;10354482;28;20215;-78
2022/12/22 13:00:45;;;;;;;5.03;4.43;;;12.20;99.90;;;;;;10382219;28;20195;-78
2022/12/22 13:05:53;;;;;;;2.70;2.50;;;12.20;99.90;;;;;;10370351;23;20285;-80
2022/12/22 13:11:33;;;;;;;6.87;3.40;;;12.20;99.90;;;;;;10365333;28;20210;-81
2022/12/22 13:16:38;;;;;;;2.70;2.40;;;12.10;99.90;;;;;;10298927;28;20713;-79
2022/12/22 13:21:44;;;;;;;3.87;2.80;;;12.20;99.90;;;;;;10321910;28;20423;-79
2022/12/22 13:26:49;;;;;;;3.90;3.43;;;12.20;99.90;;;;;;10318297;28;20250;-79
2022/12/22 13:31:56;;;;;;;4.07;3.80;;;12.10;99.90;;;;;;10280171;28;20228;-79
2022/12/22 13:37:04;;;;;;;6.97;5.50;;;12.10;99.90;;;;;;10311750;28;20218;-80
2022/12/22 13:42:07;;;;;;;4.17;3.77;;;12.10;99.90;;;;;;10320884;28;20207;-80
2022/12/22 13:47:14;;;;;;;3.67;3.27;;;12.10;99.90;;;;;;10331071;28;20728;-79
2022/12/22 13:52:18;;;;;;;3.30;3.20;;;12.10;99.90;;;;;;10298976;28;20310;-79
2022/12/22 13:57:22;;;;;;;3.10;2.90;;;12.10;99.90;;;;;;10317362;28;20294;-79
2022/12/22 14:02:31;;;;;;;3.60;3.40;;;12.20;99.90;;;;;;10281990;28;20212;-80
2022/12/22 14:07:33;;;;;;;3.10;2.90;;;12.30;99.90;;;;;;10310551;28;20287;-79
2022/12/22 14:12:41;;;;;;;4.00;3.30;;;12.30;99.90;;;;;;10338962;28;20198;-80
2022/12/22 14:17:45;;;;;;;4.57;3.40;;;12.30;99.90;;;;;;10342157;28;20272;-79
2022/12/22 14:22:51;;;;;;;3.60;3.40;;;12.40;99.90;;;;;;10301824;28;20664;-80
2022/12/22 14:27:56;;;;;;;4.00;3.60;;;12.30;99.90;;;;;;10308401;28;20258;-81
2022/12/22 14:33:15;;;;;;;4.00;3.37;;;12.30;99.90;;;;;;10320785;28;20577;-81
2022/12/22 14:38:22;;;;;;;5.03;3.80;;;12.20;99.90;;;;;;10287043;28;20623;-82
2022/12/22 14:43:31;;;;;;;4.17;3.77;;;12.00;99.90;;;;;;10308539;28;20219;-81
2022/12/22 14:48:38;;;;;;;5.53;3.97;;;11.90;99.90;;;;;;10296749;28;20234;-81
2022/12/22 14:53:45;;;;;;;5.77;4.10;;;11.80;99.90;;;;;;10328131;28;20586;-81
2022/12/22 14:58:48;;;;;;;8.97;5.10;;;11.80;99.90;;;;;;10282839;28;20191;-79
2022/12/22 15:04:05;;;;;;;6.13;3.93;;;11.80;99.90;;;;;;10273429;28;20272;-79
2022/12/22 15:09:26;;;;;;;8.93;4.40;;;11.70;99.90;;;;;;10326504;28;20247;-79
2022/12/22 15:14:31;;;;;;;10.60;5.00;;;11.70;99.90;;;;;;10305766;28;20218;-79
2022/12/22 15:19:36;;;;;;;11.70;4.20;;;11.60;99.90;;;;;;10306687;28;20746;-79
2022/12/22 15:24:38;;;;;;;9.93;4.30;;;11.60;99.90;;;;;;10298020;28;20246;-79
2022/12/22 15:29:40;;;;;;;5.07;2.93;;;11.60;99.90;;;;;;10302149;28;20218;-79
2022/12/22 15:34:44;;;;;;;7.03;3.77;;;11.60;99.90;;;;;;10328469;28;20223;-79
2022/12/22 15:39:46;;;;;;;8.33;6.20;;;11.60;99.90;;;;;;10286908;28;20271;-79
2022/12/22 15:44:48;;;;;;;4.80;3.17;;;11.60;99.90;;;;;;10318740;28;20226;-79
2022/12/22 15:49:51;;;;;;;7.77;2.97;;;11.50;99.90;;;;;;10320478;28;20235;-80
2022/12/22 15:54:54;;;;;;;7.57;2.50;;;11.50;99.90;;;;;;10283695;28;20269;-79
2022/12/22 15:59:56;;;;;;;5.27;2.77;;;11.50;99.90;;;;;;10329096;28;20193;-80
2022/12/22 16:05:00;;;;;;;8.47;2.57;;;11.40;99.90;;;;;;10307255;28;20242;-80
2022/12/22 16:10:03;;;;;;;8.73;3.00;;;11.40;99.90;;;;;;10338080;28;20553;-80
2022/12/22 16:15:06;;;;;;;6.90;3.03;;;11.40;99.90;;;;;;10314593;28;20246;-80
2022/12/22 16:20:11;;;;;;;7.20;4.10;;;11.30;99.90;;;;;;10346580;28;20206;-80
2022/12/22 16:25:16;;;;;;;9.07;3.50;;;11.30;99.90;;;;;;10313327;28;20704;-80
2022/12/22 16:30:21;;;;;;;4.27;2.90;;;11.20;99.90;;;;;;10309422;28;20345;-80
2022/12/22 16:35:27;;;;;;;11.60;3.67;;;11.20;99.90;;;;;;10337953;28;20219;-79
2022/12/22 16:40:32;;;;;;;10.37;3.73;;;11.10;99.90;;;;;;10292008;28;20195;-81
2022/12/22 16:45:36;;;;;;;9.13;3.50;;;11.10;99.90;;;;;;10320467;28;20227;-79
2022/12/22 16:50:43;;;;;;;7.60;3.00;;;11.10;99.90;;;;;;10337958;28;20211;-80
2022/12/22 16:55:45;;;;;;;5.70;3.07;;;11.10;99.90;;;;;;10316330;28;20226;-79
2022/12/22 17:00:47;;;;;;;7.27;3.13;;;11.10;99.90;;;;;;10305633;28;20636;-79
2022/12/22 17:05:53;;;;;;;10.87;3.83;;;11.10;99.90;;;;;;10315070;28;20300;-79
2022/12/22 17:10:58;;;;;;;13.53;5.27;;;11.10;99.90;;;;;;10285617;28;20211;-79
2022/12/22 17:16:01;;;;;;;9.07;4.10;;;11.10;99.90;;;;;;10314171;28;20270;-79
2022/12/22 17:21:04;;;;;;;12.43;4.63;;;11.10;99.90;;;;;;10313971;28;20188;-79
2022/12/22 17:26:09;;;;;;;9.87;4.33;;;11.10;99.90;;;;;;10294371;28;20758;-79
2022/12/22 17:31:15;;;;;;;12.90;5.47;;;11.10;99.90;;;;;;10284592;28;20234;-79
2022/12/22 17:36:28;;;;;;;12.73;5.13;;;11.10;99.90;;;;;;10315802;28;20733;-79
2022/12/22 17:41:31;;;;;;;13.43;5.40;;;11.10;99.90;;;;;;10312832;28;20214;-79
2022/12/22 17:46:33;;;;;;;15.93;5.43;;;11.20;99.90;;;;;;10330842;28;20223;-79
2022/12/22 17:51:37;;;;;;;13.87;5.70;;;11.20;99.90;;;;;;10286446;28;20215;-80
2022/12/22 17:56:39;;;;;;;20.93;6.30;;;11.20;99.90;;;;;;10334738;28;20584;-80
2022/12/22 18:01:41;;;;;;;20.60;6.67;;;11.10;99.90;;;;;;10305247;28;20237;-80
2022/12/22 18:06:45;;;;;;;18.63;5.50;;;11.10;99.90;;;;;;10307051;28;20725;-80
2022/12/22 18:11:48;;;;;;;16.53;6.13;;;11.10;99.90;;;;;;10316277;28;20212;-80
2022/12/22 18:16:50;;;;;;;13.23;4.80;;;11.10;99.90;;;;;;10303615;28;20230;-79
2022/12/22 18:21:54;;;;;;;12.00;5.77;;;11.10;99.90;;;;;;10325652;28;20672;-80
2022/12/22 18:26:56;;;;;;;11.60;5.13;;;11.10;99.90;;;;;;10283847;28;20211;-80
2022/12/22 18:31:58;;;;;;;14.67;5.40;;;11.10;99.90;;;;;;10295186;28;20219;-80
2022/12/22 18:37:02;;;;;;;13.53;5.30;;;11.10;99.90;;;;;;10333974;28;20226;-80
2022/12/22 18:42:06;;;;;;;14.80;5.10;;;11.10;99.90;;;;;;10298634;28;20192;-80
2022/12/22 18:47:10;;;;;;;15.20;4.83;;;11.20;99.90;;;;;;10300377;28;20215;-80
2022/12/22 18:52:17;;;;;;;13.93;4.80;;;11.20;99.90;;;;;;10280636;28;20303;-80
2022/12/22 18:57:20;;;;;;;13.40;5.53;;;11.20;99.90;;;;;;10315969;28;20235;-80
2022/12/22 19:02:25;;;;;;;14.30;6.70;;;11.20;99.90;;;;;;10279875;28;20196;-80
2022/12/22 19:07:28;;;;;;;13.77;5.53;;;11.20;99.90;;;;;;10302286;28;20220;-80
2022/12/22 19:12:30;;;;;;;17.30;8.00;;;11.20;99.90;;;;;;10337510;28;20219;-80
2022/12/22 19:17:32;;;;;;;11.67;6.40;;;11.20;99.90;;;;;;10335742;28;20270;-80
2022/12/22 19:22:36;;;;;;;20.73;7.20;;;11.20;99.90;;;;;;10262896;28;20223;-80
2022/12/22 19:27:38;;;;;;;15.50;5.53;;;11.30;99.90;;;;;;10316130;28;20245;-79
2022/12/22 19:32:45;;;;;;;18.23;5.30;;;11.30;99.90;;;;;;10295513;28;20275;-80
2022/12/22 19:37:51;;;;;;;13.70;5.33;;;11.30;99.90;;;;;;10329669;28;20282;-79
2022/12/22 19:42:55;;;;;;;14.20;5.40;;;11.30;99.90;;;;;;10320038;28;20192;-80
2022/12/22 19:47:57;;;;;;;16.47;5.27;;;11.30;99.90;;;;;;10342577;28;20244;-80
2022/12/22 19:53:01;;;;;;;16.30;6.30;;;11.30;99.90;;;;;;10336966;28;20208;-79
2022/12/22 19:58:03;;;;;;;7.60;5.50;;;11.30;99.90;;;;;;10353733;28;20222;-80
2022/12/22 20:03:05;;;;;;;14.60;5.30;;;11.30;99.90;;;;;;10324499;28;20210;-81
2022/12/22 20:08:09;;;;;;;14.00;5.87;;;11.30;99.90;;;;;;10266323;29;20196;-80
2022/12/22 20:13:15;;;;;;;11.73;5.40;;;11.30;99.90;;;;;;10303926;28;20771;-80
2022/12/22 20:18:19;;;;;;;16.03;5.33;;;11.30;99.90;;;;;;10293194;28;20196;-80
2022/12/22 20:23:24;;;;;;;30.30;15.00;;;11.20;99.90;;;;;;10289182;28;20659;-80
2022/12/22 20:28:28;;;;;;;12.57;5.73;;;11.10;99.90;;;;;;10298093;28;20228;-80
2022/12/22 20:33:31;;;;;;;21.93;12.30;;;11.10;99.90;;;;;;10324833;28;20686;-80
2022/12/22 20:38:36;;;;;;;10.20;4.93;;;11.10;99.90;;;;;;10304799;28;20208;-80
2022/12/22 20:43:40;;;;;;;9.53;4.10;;;11.00;99.90;;;;;;10331297;28;20589;-80
2022/12/22 20:48:44;;;;;;;9.03;4.77;;;11.00;99.90;;;;;;10329390;28;20249;-80
2022/12/22 20:53:49;;;;;;;12.20;4.80;;;11.00;99.90;;;;;;10298856;28;20228;-80
2022/12/22 20:58:51;;;;;;;11.57;4.40;;;10.90;99.90;;;;;;10319760;28;20253;-79
2022/12/22 21:03:53;;;;;;;7.60;4.10;;;10.90;99.90;;;;;;10319264;28;20234;-80
2022/12/22 21:08:58;;;;;;;8.37;3.60;;;10.90;99.90;;;;;;10298997;28;20247;-80
2022/12/22 21:14:00;;;;;;;6.20;3.80;;;10.90;99.90;;;;;;10336535;28;20243;-80
2022/12/22 21:19:03;;;;;;;9.07;3.83;;;10.90;99.90;;;;;;10319540;28;20199;-79
2022/12/22 21:24:07;;;;;;;7.70;3.23;;;11.00;99.90;;;;;;10299885;28;20747;-80
2022/12/22 21:29:15;;;;;;;5.23;3.33;;;10.90;99.90;;;;;;10335381;28;20204;-80
2022/12/22 21:34:17;;;;;;;5.80;3.10;;;10.90;99.90;;;;;;10281263;28;20290;-80
2022/12/22 21:39:27;;;;;;;8.57;3.90;;;10.90;99.90;;;;;;10334448;28;20187;-80
2022/12/22 21:44:30;;;;;;;7.63;4.17;;;10.80;99.90;;;;;;10300030;28;20713;-80
2022/12/22 21:49:33;;;;;;;11.37;6.63;;;10.80;99.90;;;;;;10328529;28;20669;-80
2022/12/22 21:54:36;;;;;;;8.40;7.60;;;10.80;99.90;;;;;;10306861;28;20286;-82
2022/12/22 21:59:38;;;;;;;9.80;8.97;;;10.70;99.90;;;;;;10334890;28;20197;-82
2022/12/22 22:04:40;;;;;;;10.13;8.30;;;10.60;99.90;;;;;;10283950;28;20220;-80
2022/12/22 22:09:44;;;;;;;9.77;8.60;;;10.60;99.90;;;;;;10335458;28;20439;-82
2022/12/22 22:14:46;;;;;;;9.97;9.17;;;10.60;99.90;;;;;;10286974;28;20219;-82
2022/12/22 22:19:49;;;;;;;9.83;9.00;;;10.50;99.90;;;;;;10321070;28;20204;-79
2022/12/22 22:24:52;;;;;;;9.00;8.10;;;10.50;99.90;;;;;;10280631;28;20223;-79
2022/12/22 22:29:54;;;;;;;9.87;9.07;;;10.40;99.90;;;;;;10332406;28;20258;-80
2022/12/22 22:34:56;;;;;;;11.80;10.67;;;10.40;99.90;;;;;;10323153;28;20338;-80
2022/12/22 22:40:00;;;;;;;9.53;8.83;;;10.40;99.90;;;;;;10317114;28;20820;-80
2022/12/22 22:45:02;;;;;;;17.83;13.63;;;10.40;99.90;;;;;;10301866;28;20226;-80
2022/12/22 22:50:07;;;;;;;20.87;18.63;;;10.40;99.90;;;;;;10332878;28;20250;-80
2022/12/22 22:55:13;;;;;;;14.73;10.80;;;10.40;99.90;;;;;;10341869;28;20250;-80
2022/12/22 23:00:17;;;;;;;10.73;9.63;;;10.40;99.90;;;;;;10302231;28;20314;-80
2022/12/22 23:05:19;;;;;;;9.23;8.43;;;10.40;99.90;;;;;;10330722;28;20713;-81
2022/12/22 23:10:22;;;;;;;5.80;4.80;;;10.40;99.90;;;;;;10284244;28;20218;-81
2022/12/22 23:15:24;;;;;;;7.97;7.30;;;10.40;99.90;;;;;;10312393;28;20576;-81
2022/12/22 23:20:27;;;;;;;9.10;8.20;;;10.30;99.90;;;;;;10285629;28;20227;-81
2022/12/22 23:25:30;;;;;;;7.13;6.43;;;10.30;99.90;;;;;;10321196;28;20680;-80
2022/12/22 23:30:32;;;;;;;7.40;6.90;;;10.40;99.90;;;;;;10319713;28;20266;-81
2022/12/22 23:35:35;;;;;;;7.20;6.70;;;10.30;99.90;;;;;;10287696;28;20251;-81
2022/12/22 23:40:40;;;;;;;7.77;6.97;;;10.30;99.90;;;;;;10301047;28;20227;-81
2022/12/22 23:45:42;;;;;;;7.63;7.07;;;10.40;99.90;;;;;;10344198;28;20192;-80
2022/12/22 23:50:46;;;;;;;6.70;6.30;;;10.40;99.90;;;;;;10311613;28;20543;-80
2022/12/22 23:55:49;;;;;;;6.30;5.90;;;10.50;99.90;;;;;;10328705;28;20306;-80
